Time;durP1;ratioP1;P1;durP2;ratioP2;P2;SDS_P1;SDS_P2;PMS_P1;PMS_P2;Temp;Humidity;BMP_temperature;BMP_pressure;BME280_temperature;BME280_humidity;BME280_pressure;Samples;Min_cycle;Max_cycle;Signal;HPM_P1;HPM_P2
2021/12/13 00:00:20;;;;;;;61.37;44.17;;;;;;;8.83;100.00;102420.31;5094706;28;20036;-56
2021/12/13 00:02:48;;;;;;;69.82;42.88;;;;;;;8.83;100.00;102412.59;5094541;28;20327;-56
2021/12/13 00:05:31;;;;;;;65.70;43.50;;;;;;;8.84;100.00;102419.50;5093739;28;20028;-56
2021/12/13 00:08:00;;;;;;;62.58;41.47;;;;;;;8.82;100.00;102409.91;5094872;28;20110;-56
2021/12/13 00:10:35;;;;;;;62.75;41.75;;;;;;;8.81;100.00;102406.47;5094278;28;20051;-56
2021/12/13 00:13:07;;;;;;;55.55;38.47;;;;;;;8.78;100.00;102411.44;5094450;28;20036;-56
2021/12/13 00:15:39;;;;;;;59.45;39.85;;;;;;;8.78;100.00;102414.00;5094316;28;20027;-56
2021/12/13 00:18:06;;;;;;;57.88;37.95;;;;;;;8.75;100.00;102408.66;5093665;28;20442;-56
2021/12/13 00:20:39;;;;;;;57.30;38.83;;;;;;;8.76;100.00;102404.41;5093951;28;20115;-56
2021/12/13 00:23:25;;;;;;;55.17;37.78;;;;;;;8.75;100.00;102413.78;5094442;28;20032;-56
2021/12/13 00:25:54;;;;;;;63.05;38.72;;;;;;;8.73;100.00;102415.41;5093102;28;20376;-56
2021/12/13 00:28:23;;;;;;;55.50;38.03;;;;;;;8.73;100.00;102415.41;5094142;28;20035;-57
2021/12/13 00:31:25;;;;;;;59.53;38.63;;;;;;;8.73;100.00;102416.28;5093805;28;20383;-57
2021/12/13 00:34:20;;;;;;;63.05;37.88;;;;;;;8.73;100.00;102417.97;5093366;28;20078;-56
2021/12/13 00:36:50;;;;;;;49.15;35.78;;;;;;;8.69;100.00;102419.47;5094029;28;20048;-56
2021/12/13 00:39:29;;;;;;;54.40;36.50;;;;;;;8.70;100.00;102423.81;5092946;28;20024;-56
2021/12/13 00:41:56;;;;;;;52.28;34.72;;;;;;;8.67;100.00;102426.16;5093906;28;20073;-56
2021/12/13 00:44:27;;;;;;;48.65;34.15;;;;;;;8.65;100.00;102427.78;5093818;28;20119;-57
2021/12/13 00:46:54;;;;;;;47.63;33.38;;;;;;;8.65;100.00;102432.91;5093003;28;20165;-56
2021/12/13 00:49:24;;;;;;;;;;;;;;;8.71;100.00;102432.41;5094061;28;20020;-56
2021/12/13 00:51:56;;;;;;;46.03;33.05;;;;;;;8.62;100.00;102437.84;5093553;28;19912;-56
2021/12/13 00:54:35;;;;;;;46.70;31.40;;;;;;;8.61;100.00;102433.53;5093038;28;20024;-56
2021/12/13 00:57:01;;;;;;;49.92;31.77;;;;;;;8.60;100.00;102435.97;5093741;28;20020;-56
2021/12/13 00:59:31;;;;;;;43.35;31.65;;;;;;;8.57;100.00;102437.56;5093562;28;20035;-56
2021/12/13 01:02:06;;;;;;;45.85;31.30;;;;;;;8.55;100.00;102436.56;5091653;28;20111;-56
2021/12/13 01:04:54;;;;;;;45.92;31.42;;;;;;;8.57;100.00;102436.66;5093381;28;20035;-56
2021/12/13 01:07:57;;;;;;;46.53;30.85;;;;;;;8.55;100.00;102441.72;5092783;28;20024;-56
2021/12/13 01:10:48;;;;;;;42.17;30.55;;;;;;;8.55;100.00;102446.84;5093321;28;20514;-56
2021/12/13 01:13:32;;;;;;;48.05;31.50;;;;;;;8.51;100.00;102439.75;5093604;28;20024;-56
2021/12/13 01:16:16;;;;;;;44.78;32.28;;;;;;;8.50;100.00;102432.81;5092412;28;20107;-57
2021/12/13 01:21:43;;;;;;;45.33;33.03;;;;;;;8.49;100.00;102446.44;5092398;28;20572;-56
2021/12/13 01:24:16;;;;;;;47.50;32.70;;;;;;;8.46;100.00;102443.69;5092958;28;20494;-56
2021/12/13 01:26:52;;;;;;;49.17;32.25;;;;;;;8.46;100.00;102446.28;5092742;28;20048;-56
2021/12/13 01:29:21;;;;;;;50.28;34.38;;;;;;;8.46;100.00;102448.84;5092346;28;20028;-56
2021/12/13 01:32:03;;;;;;;51.75;33.88;;;;;;;8.47;100.00;102457.44;5093006;28;20028;-57
2021/12/13 01:34:32;;;;;;;57.20;35.25;;;;;;;8.44;100.00;102452.06;5093063;28;20028;-56
2021/12/13 01:37:07;;;;;;;52.85;35.72;;;;;;;8.44;100.00;102458.09;5092176;28;20024;-56
2021/12/13 01:39:35;;;;;;;53.45;34.92;;;;;;;8.39;100.00;102457.81;5092767;28;20051;-57
2021/12/13 01:42:09;;;;;;;53.33;36.33;;;;;;;8.39;100.00;102460.38;5092047;28;20490;-57
2021/12/13 01:44:40;;;;;;;55.92;36.55;;;;;;;8.38;100.00;102457.72;5092854;28;20096;-56
2021/12/13 01:47:20;;;;;;;51.92;35.60;;;;;;;8.38;100.00;102461.16;5092949;28;20024;-56
2021/12/13 01:49:53;;;;;;;58.05;36.65;;;;;;;8.36;100.00;102465.28;5092124;28;20035;-56
2021/12/13 01:52:26;;;;;;;61.72;36.45;;;;;;;8.36;100.00;102465.28;5092781;28;20020;-56
2021/12/13 01:54:54;;;;;;;58.60;36.80;;;;;;;8.36;100.00;102472.13;5092836;28;20059;-56
2021/12/13 01:57:28;;;;;;;54.92;36.40;;;;;;;8.35;100.00;102475.47;5092051;28;20115;-56
2021/12/13 02:00:19;;;;;;;55.63;35.35;;;;;;;8.35;100.00;102465.19;5092671;28;20036;-56
2021/12/13 02:02:48;;;;;;;58.22;35.70;;;;;;;8.34;100.00;102463.41;5092700;28;20506;-56
2021/12/13 02:05:21;;;;;;;60.30;35.28;;;;;;;8.33;100.00;102464.22;5091910;28;20376;-56
2021/12/13 02:07:51;;;;;;;59.45;36.63;;;;;;;8.32;100.00;102475.28;5092749;28;20027;-56
2021/12/13 02:10:36;;;;;;;60.55;36.72;;;;;;;8.31;100.00;102471.81;5092170;28;20025;-56
2021/12/13 02:13:06;;;;;;;61.88;38.05;;;;;;;8.31;100.00;102476.94;5093481;28;20111;-57
2021/12/13 02:18:26;;;;;;;61.47;35.80;;;;;;;8.28;100.00;102478.47;5096095;28;20042;-57
2021/12/13 02:21:03;;;;;;;62.88;38.03;;;;;;;8.26;100.00;102475.75;5096391;28;20046;-56
2021/12/13 02:23:31;;;;;;;65.93;36.70;;;;;;;8.24;100.00;102470.53;5096663;28;20020;-56
2021/12/13 02:25:57;;;;;;;67.65;38.22;;;;;;;8.24;100.00;102475.66;5095740;28;20048;-57
2021/12/13 02:28:26;;;;;;;68.45;39.38;;;;;;;8.22;100.00;102467.00;5096333;28;20503;-56
2021/12/13 02:30:57;;;;;;;60.75;37.33;;;;;;;8.22;100.00;102466.09;5096244;28;20395;-56
2021/12/13 02:33:36;;;;;;;62.13;37.65;;;;;;;8.21;100.00;102467.78;5095771;28;20062;-57
2021/12/13 02:36:16;;;;;;;62.13;38.25;;;;;;;8.22;100.00;102467.00;5096228;28;20027;-56
2021/12/13 02:38:44;;;;;;;66.78;38.80;;;;;;;8.20;100.00;102468.56;5095439;28;20547;-56
2021/12/13 02:41:10;;;;;;;63.53;39.17;;;;;;;8.18;100.00;102464.13;5096025;28;20402;-56
2021/12/13 02:43:40;;;;;;;62.88;39.58;;;;;;;8.17;100.00;102463.25;5096116;28;20027;-56
2021/12/13 02:46:06;;;;;;;60.72;37.78;;;;;;;8.18;100.00;102459.84;5095333;28;20027;-56
2021/12/13 02:48:39;;;;;;;67.10;39.08;;;;;;;8.16;100.00;102469.16;5095875;28;20028;-57
2021/12/13 02:51:27;;;;;;;66.20;39.38;;;;;;;8.18;100.00;102474.38;5096151;28;20061;-56
2021/12/13 02:54:10;;;;;;;66.38;39.03;;;;;;;8.18;100.00;102474.38;5095147;28;20024;-57
2021/12/13 02:56:44;;;;;;;63.55;39.25;;;;;;;8.12;100.00;102472.31;5095886;28;20115;-57
2021/12/13 02:59:10;;;;;;;69.47;39.63;;;;;;;8.14;100.00;102469.84;5095873;28;20028;-56
2021/12/13 03:01:36;;;;;;;69.50;41.90;;;;;;;8.11;100.00;102467.97;5095207;28;20024;-57
2021/12/13 03:04:07;;;;;;;68.20;39.33;;;;;;;8.11;100.00;102467.97;5095755;28;20089;-56
2021/12/13 03:06:37;;;;;;;66.72;39.92;;;;;;;8.11;100.00;102467.06;5095035;28;20274;-56
2021/12/13 03:09:11;;;;;;;67.95;41.30;;;;;;;8.09;100.00;102469.53;5095519;28;20395;-57
2021/12/13 03:11:37;;;;;;;70.10;40.22;;;;;;;8.08;100.00;102462.59;5095400;28;20060;-56
2021/12/13 03:14:11;;;;;;;65.53;39.28;;;;;;;8.06;100.00;102470.22;5095092;28;20063;-57
2021/12/13 03:16:48;;;;;;;72.20;40.03;;;;;;;8.05;100.00;102458.16;5095718;28;20035;-57
2021/12/13 03:19:28;;;;;;;70.40;41.10;;;;;;;8.06;100.00;102459.94;5095499;28;20028;-56
2021/12/13 03:22:20;;;;;;;71.22;40.15;;;;;;;8.05;100.00;102463.28;5094666;28;20080;-56
2021/12/13 03:25:09;;;;;;;70.63;39.67;;;;;;;8.04;100.00;102460.63;5094331;28;20024;-56
2021/12/13 03:27:51;;;;;;;72.20;40.80;;;;;;;8.04;100.00;102471.81;5094086;28;20128;-57
2021/12/13 03:30:33;;;;;;;71.03;40.50;;;;;;;8.04;100.00;102476.94;5095177;28;20032;-56
2021/12/13 03:33:11;;;;;;;67.47;41.47;;;;;;;8.01;100.00;102470.72;5095398;28;20026;-57
2021/12/13 03:35:57;;;;;;;67.55;40.80;;;;;;;8.04;100.00;102470.91;5094635;28;20099;-56
2021/12/13 03:38:29;;;;;;;72.88;41.00;;;;;;;8.02;100.00;102480.19;5095336;28;20376;-56
2021/12/13 03:41:01;;;;;;;66.50;39.63;;;;;;;8.02;100.00;102475.06;5095001;28;20020;-56
2021/12/13 03:43:36;;;;;;;72.55;40.50;;;;;;;8.02;100.00;102477.63;5094616;28;20028;-57
2021/12/13 03:46:05;;;;;;;67.63;37.50;;;;;;;8.00;100.00;102474.94;5095100;28;20032;-56
2021/12/13 03:48:32;;;;;;;63.90;38.28;;;;;;;8.01;100.00;102475.84;5094288;28;20024;-57
2021/12/13 03:51:03;;;;;;;69.97;39.70;;;;;;;8.01;100.00;102475.84;5094703;28;20032;-57
2021/12/13 03:53:33;;;;;;;66.45;39.75;;;;;;;8.00;100.00;102471.50;5094996;28;20758;-56
2021/12/13 03:56:10;;;;;;;65.60;38.20;;;;;;;8.00;100.00;102474.94;5094347;28;20081;-56
2021/12/13 03:58:42;;;;;;;64.53;37.17;;;;;;;8.00;100.00;102479.19;5094792;28;20042;-56
2021/12/13 04:01:16;;;;;;;66.13;38.60;;;;;;;7.98;100.00;102483.31;5094812;28;20024;-56
2021/12/13 04:03:43;;;;;;;70.00;37.97;;;;;;;7.98;100.00;102473.06;5094016;28;20085;-56
2021/12/13 04:06:12;;;;;;;64.07;38.67;;;;;;;8.00;100.00;102474.06;5094763;28;20020;-56
2021/12/13 04:08:39;;;;;;;64.90;38.05;;;;;;;7.98;100.00;102470.50;5094686;28;20520;-56
2021/12/13 04:11:09;;;;;;;61.28;37.35;;;;;;;7.98;100.00;102473.06;5093909;28;20032;-56
2021/12/13 04:13:59;;;;;;;65.05;38.10;;;;;;;7.98;100.00;102473.06;5094585;28;20028;-56
2021/12/13 04:16:46;;;;;;;62.20;37.45;;;;;;;7.95;100.00;102476.31;5094748;28;20043;-56
2021/12/13 04:19:16;;;;;;;67.85;37.55;;;;;;;7.97;100.00;102479.00;5094819;28;20027;-56
2021/12/13 04:22:01;;;;;;;66.28;39.13;;;;;;;7.94;100.00;102478.78;5094618;28;20130;-56
2021/12/13 04:24:32;;;;;;;63.78;37.22;;;;;;;7.94;100.00;102481.34;5093712;28;20016;-56
2021/12/13 04:27:02;;;;;;;66.32;37.33;;;;;;;7.94;100.00;102482.25;5094263;28;20057;-57
2021/12/13 04:29:34;;;;;;;60.45;35.65;;;;;;;7.94;100.00;102484.81;5094843;28;20456;-56
2021/12/13 04:32:14;;;;;;;65.82;36.75;;;;;;;7.93;100.00;102488.19;5093212;28;20023;-56
2021/12/13 04:34:42;;;;;;;59.75;37.08;;;;;;;7.93;100.00;102482.13;5093854;28;20028;-57
2021/12/13 04:37:12;;;;;;;65.70;37.00;;;;;;;7.91;100.00;102489.75;5093760;28;20024;-57
2021/12/13 04:39:40;;;;;;;60.63;35.42;;;;;;;7.93;100.00;102484.69;5093293;28;20156;-57
2021/12/13 04:42:13;;;;;;;61.88;36.17;;;;;;;7.92;100.00;102481.25;5093934;28;20032;-57
2021/12/13 04:44:53;;;;;;;61.97;36.65;;;;;;;7.93;100.00;102492.41;5093857;28;20016;-57
2021/12/13 04:47:28;;;;;;;60.50;35.72;;;;;;;7.91;100.00;102482.94;5093730;28;20031;-56
2021/12/13 04:50:08;;;;;;;58.63;36.53;;;;;;;7.91;100.00;102476.91;5093785;28;20032;-56
2021/12/13 04:52:34;;;;;;;58.50;34.63;;;;;;;7.90;100.00;102481.16;5093088;28;20475;-57
2021/12/13 04:55:01;;;;;;;59.72;34.78;;;;;;;7.90;100.00;102481.16;5093938;28;20491;-56
2021/12/13 04:57:27;;;;;;;57.45;33.88;;;;;;;7.89;100.00;102476.81;5093928;28;20035;-56
2021/12/13 04:59:59;;;;;;;57.92;34.20;;;;;;;7.89;100.00;102479.38;5092575;28;20383;-56
2021/12/13 05:02:25;;;;;;;59.20;34.10;;;;;;;7.88;100.00;102480.16;5093901;28;20028;-56
2021/12/13 05:04:56;;;;;;;61.08;33.55;;;;;;;7.88;100.00;102480.16;5093637;28;20028;-56
2021/12/13 05:07:23;;;;;;;56.05;32.63;;;;;;;7.87;100.00;102475.81;5092851;28;20016;-57
2021/12/13 05:09:50;;;;;;;56.83;33.67;;;;;;;7.87;100.00;102482.63;5093494;28;20024;-57
2021/12/13 05:12:22;;;;;;;57.25;33.90;;;;;;;7.86;100.00;102480.84;5093373;28;20454;-57
2021/12/13 05:14:53;;;;;;;54.28;33.20;;;;;;;7.86;100.00;102484.31;5092530;28;20387;-56
2021/12/13 05:17:23;;;;;;;54.50;33.45;;;;;;;7.86;100.00;102484.31;5093367;28;20051;-56
2021/12/13 05:19:57;;;;;;;53.55;32.30;;;;;;;7.85;100.00;102490.22;5092983;28;20375;-56
2021/12/13 05:22:23;;;;;;;52.88;32.00;;;;;;;7.86;100.00;102494.59;5093432;28;20028;-56
2021/12/13 05:24:59;;;;;;;54.78;32.45;;;;;;;7.87;100.00;102490.31;5093230;28;20020;-57
2021/12/13 05:27:38;;;;;;;51.75;31.27;;;;;;;7.88;100.00;102494.69;5092450;28;20040;-56
2021/12/13 05:30:10;;;;;;;51.80;30.52;;;;;;;7.88;100.00;102494.69;5093389;28;20099;-56
2021/12/13 05:32:41;;;;;;;50.33;30.50;;;;;;;7.85;100.00;102490.22;5093134;28;20020;-56
2021/12/13 05:35:30;;;;;;;53.83;30.73;;;;;;;7.88;100.00;102487.84;5092421;28;20027;-57
2021/12/13 05:37:59;;;;;;;51.00;30.90;;;;;;;7.86;100.00;102486.88;5093095;28;20028;-56
2021/12/13 05:40:33;;;;;;;47.50;29.25;;;;;;;7.86;100.00;102485.97;5093189;28;20036;-56
2021/12/13 05:43:01;;;;;;;50.55;30.30;;;;;;;7.85;100.00;102490.22;5092266;28;20036;-57
2021/12/13 05:45:36;;;;;;;48.58;29.30;;;;;;;7.86;100.00;102492.00;5093048;28;20031;-57
2021/12/13 05:48:09;;;;;;;46.20;27.85;;;;;;;7.87;100.00;102493.78;5095530;28;20020;-56
2021/12/13 05:50:45;;;;;;;45.25;28.15;;;;;;;7.88;100.00;102493.00;5099598;28;20497;-57
2021/12/13 05:53:16;;;;;;;44.95;26.45;;;;;;;7.87;100.00;102488.63;5099671;28;20482;-57
2021/12/13 05:55:55;;;;;;;45.00;27.55;;;;;;;7.87;100.00;102493.78;5098933;28;20016;-56
2021/12/13 05:58:37;;;;;;;44.03;27.13;;;;;;;7.88;100.00;102498.13;5099770;28;20089;-56
2021/12/13 06:01:11;;;;;;;51.85;28.27;;;;;;;7.87;100.00;102493.78;5099631;28;20024;-56
2021/12/13 06:03:39;;;;;;;48.78;27.83;;;;;;;7.86;100.00;102494.59;5098895;28;20070;-57
2021/12/13 06:06:11;;;;;;;43.28;26.88;;;;;;;7.87;100.00;102501.47;5099647;28;20426;-57
2021/12/13 06:08:54;;;;;;;44.67;27.27;;;;;;;7.85;100.00;102495.38;5099421;28;20048;-56
2021/12/13 06:11:34;;;;;;;44.53;26.65;;;;;;;7.85;100.00;102495.38;5098902;28;20432;-56
2021/12/13 06:14:18;;;;;;;39.75;26.45;;;;;;;7.87;100.00;102498.03;5099771;28;20048;-56
2021/12/13 06:17:07;;;;;;;43.58;26.08;;;;;;;7.87;100.00;102496.34;5099022;28;20099;-56
2021/12/13 06:19:46;;;;;;;41.05;25.70;;;;;;;7.82;100.00;102495.13;5099781;28;20028;-57
2021/12/13 06:22:21;;;;;;;41.45;26.88;;;;;;;7.81;100.00;102498.53;5099571;28;20463;-56
2021/12/13 06:24:52;;;;;;;42.75;26.02;;;;;;;7.80;100.00;102500.94;5098520;28;20024;-56
2021/12/13 06:27:26;;;;;;;43.92;26.33;;;;;;;7.79;100.00;102500.06;5099303;28;20101;-56
2021/12/13 06:29:59;;;;;;;42.75;26.33;;;;;;;7.79;100.00;102501.75;5099541;28;20035;-56
2021/12/13 06:32:27;;;;;;;41.15;25.73;;;;;;;7.76;100.00;102507.59;5098571;28;20475;-56
2021/12/13 06:34:53;;;;;;;42.33;24.48;;;;;;;7.76;100.00;102499.88;5099539;28;20039;-56
2021/12/13 06:37:33;;;;;;;42.60;24.88;;;;;;;7.81;100.00;102513.91;5098437;28;20379;-56
2021/12/13 06:40:14;;;;;;;41.90;24.27;;;;;;;7.80;100.00;102512.13;5099114;28;20024;-56
2021/12/13 06:42:39;;;;;;;37.75;24.00;;;;;;;7.78;100.00;102518.81;5099549;28;20104;-56
2021/12/13 06:45:33;;;;;;;41.35;24.70;;;;;;;7.78;100.00;102521.38;5098444;28;20051;-56
2021/12/13 06:48:01;;;;;;;38.33;23.20;;;;;;;7.76;100.00;102520.41;5099094;28;20487;-56
2021/12/13 06:50:31;;;;;;;37.95;23.30;;;;;;;7.75;100.00;102514.38;5099230;28;20031;-56
2021/12/13 06:53:11;;;;;;;37.40;22.92;;;;;;;7.76;100.00;102515.28;5098491;28;20081;-57
2021/12/13 06:55:37;;;;;;;35.58;22.30;;;;;;;7.75;100.00;102518.63;5098712;28;20479;-57
2021/12/13 06:58:13;;;;;;;36.22;22.80;;;;;;;7.74;100.00;102522.84;5098866;28;20031;-56
2021/12/13 07:00:38;;;;;;;36.28;22.52;;;;;;;7.75;100.00;102523.75;5094906;28;20119;-56
2021/12/13 07:03:10;;;;;;;36.85;24.27;;;;;;;7.72;100.00;102529.56;5095838;28;20056;-56
2021/12/13 07:05:42;;;;;;;42.05;25.17;;;;;;;7.71;100.00;102530.34;5094982;28;20035;-56
2021/12/13 07:08:31;;;;;;;38.47;24.33;;;;;;;7.76;100.00;102528.13;5095768;28;20055;-56
2021/12/13 07:11:02;;;;;;;36.92;24.27;;;;;;;7.75;100.00;102536.59;5095428;28;20032;-56
2021/12/13 07:13:37;;;;;;;37.20;21.58;;;;;;;7.75;100.00;102534.91;5094719;28;20369;-56
2021/12/13 07:16:13;;;;;;;38.63;24.73;;;;;;;7.73;100.00;102528.78;5095347;28;20491;-56
2021/12/13 07:19:25;;;;;;;34.92;21.50;;;;;;;7.79;100.00;102536.00;5095426;28;20024;-57
2021/12/13 07:22:02;;;;;;;37.53;22.67;;;;;;;7.75;100.00;102534.91;5012304;28;20030;-56
2021/12/13 07:24:40;;;;;;;35.17;22.00;;;;;;;7.74;100.00;102537.38;5013217;28;20116;-57
2021/12/13 07:27:18;;;;;;;44.17;25.17;;;;;;;7.74;100.00;102534.81;5067977;28;20048;-56
2021/12/13 07:29:46;;;;;;;39.25;22.73;;;;;;;7.73;100.00;102535.59;5095168;28;20032;-57
2021/12/13 07:32:26;;;;;;;75.90;33.35;;;;;;;7.74;100.00;102547.63;5095306;28;20139;-56
2021/12/13 07:35:06;;;;;;;36.13;22.23;;;;;;;7.74;100.00;102545.94;5094507;28;20039;-57
2021/12/13 07:37:49;;;;;;;35.95;21.83;;;;;;;7.74;100.00;102539.94;5095249;28;20052;-56
2021/12/13 07:40:26;;;;;;;32.20;21.33;;;;;;;7.75;100.00;102544.28;5094936;28;20028;-56
2021/12/13 07:43:26;;;;;;;39.95;22.52;;;;;;;7.75;100.00;102545.19;5094339;28;20036;-56
2021/12/13 07:46:27;;;;;;;34.20;20.98;;;;;;;7.76;100.00;102548.66;5090422;28;20032;-57
2021/12/13 07:48:58;;;;;;;37.90;22.63;;;;;;;7.75;100.00;102549.44;5079309;28;20124;-57
2021/12/13 07:51:35;;;;;;;38.75;23.00;;;;;;;7.77;100.00;102557.22;5094914;28;20510;-57
2021/12/13 07:54:15;;;;;;;33.90;22.30;;;;;;;7.78;100.00;102559.91;5094794;28;20468;-57
2021/12/13 07:57:00;;;;;;;38.38;22.27;;;;;;;7.78;100.00;102565.03;5093701;28;20028;-56
2021/12/13 07:59:32;;;;;;;41.28;23.15;;;;;;;7.77;100.00;102570.94;5094579;28;20460;-56
2021/12/13 08:02:05;;;;;;;34.83;22.20;;;;;;;7.76;100.00;102571.75;5093783;28;20031;-56
2021/12/13 08:04:46;;;;;;;33.63;22.33;;;;;;;7.78;100.00;102580.44;5094631;28;20024;-56
2021/12/13 08:07:16;;;;;;;34.70;21.88;;;;;;;7.77;100.00;102576.06;5094580;28;20136;-56
2021/12/13 08:09:51;;;;;;;35.15;22.20;;;;;;;7.78;100.00;102565.03;5093713;28;20078;-56
2021/12/13 08:12:34;;;;;;;36.85;22.17;;;;;;;7.81;100.00;102566.91;5093893;28;20024;-56
2021/12/13 08:15:32;;;;;;;35.38;21.27;;;;;;;7.81;100.00;102566.91;5094206;28;20028;-57
2021/12/13 08:17:59;;;;;;;;;;;;;;;7.87;100.00;102562.19;5092995;28;20044;-56
2021/12/13 08:20:35;;;;;;;34.80;22.70;;;;;;;7.81;100.00;102570.38;5094075;28;20398;-56
2021/12/13 08:23:04;;;;;;;32.28;21.05;;;;;;;7.82;100.00;102572.16;5093469;28;20103;-56
2021/12/13 08:25:38;;;;;;;33.38;21.48;;;;;;;7.82;100.00;102572.16;5094223;28;20028;-56
2021/12/13 08:28:12;;;;;;;32.95;20.23;;;;;;;7.83;100.00;102566.22;5094038;28;20424;-57
2021/12/13 08:30:51;;;;;;;34.25;20.83;;;;;;;7.84;100.00;102568.03;5093230;28;20055;-57
2021/12/13 08:33:20;;;;;;;31.45;20.80;;;;;;;7.82;100.00;102572.16;5094058;28;20035;-56
2021/12/13 08:35:51;;;;;;;30.88;20.90;;;;;;;7.84;100.00;102570.59;5093778;28;20052;-57
2021/12/13 08:38:43;;;;;;;31.50;20.50;;;;;;;7.85;100.00;102568.91;5093048;28;20161;-56
2021/12/13 08:41:14;;;;;;;30.95;20.83;;;;;;;7.85;100.00;102574.03;5093835;28;20033;-56
2021/12/13 08:43:43;;;;;;;28.35;20.58;;;;;;;7.85;100.00;102567.25;5093852;28;20036;-57
2021/12/13 08:46:11;;;;;;;28.63;19.42;;;;;;;7.85;100.00;102574.94;5092925;28;20467;-56
2021/12/13 08:48:50;;;;;;;29.88;20.13;;;;;;;7.87;100.00;102575.03;5093384;28;20036;-56
2021/12/13 08:51:20;;;;;;;29.92;20.05;;;;;;;7.85;100.00;102576.59;5092943;28;20047;-56
2021/12/13 08:53:57;;;;;;;36.20;22.27;;;;;;;7.85;100.00;102579.16;5093475;28;20435;-56
2021/12/13 08:56:23;;;;;;;;;;;;;;;7.95;100.00;102583.25;5094021;28;20028;-57
2021/12/13 08:59:03;;;;;;;32.00;21.98;;;;;;;7.86;100.00;102579.28;5092672;28;19912;-56
2021/12/13 09:01:39;;;;;;;30.27;19.88;;;;;;;7.86;100.00;102574.16;5093313;28;20024;-56
2021/12/13 09:04:10;;;;;;;30.80;20.15;;;;;;;7.86;100.00;102571.59;5093443;28;20028;-56
2021/12/13 09:06:36;;;;;;;30.30;19.52;;;;;;;7.88;100.00;102571.69;5092466;28;20141;-57
2021/12/13 09:09:11;;;;;;;27.60;18.63;;;;;;;7.89;100.00;102573.47;5093312;28;20020;-56
2021/12/13 09:12:01;;;;;;;26.45;19.15;;;;;;;7.89;100.00;102583.75;5093138;28;20032;-57
2021/12/13 09:14:42;;;;;;;28.42;18.98;;;;;;;7.90;100.00;102576.16;5093520;28;20088;-56
2021/12/13 09:17:16;;;;;;;30.23;20.83;;;;;;;7.89;100.00;102579.50;5093139;28;20024;-56
2021/12/13 09:19:44;;;;;;;27.17;18.73;;;;;;;7.90;100.00;102586.41;5092261;28;20106;-56
2021/12/13 09:22:24;;;;;;;25.27;17.23;;;;;;;7.91;100.00;102583.06;5092494;28;20035;-56
2021/12/13 09:24:56;;;;;;;29.77;17.92;;;;;;;7.93;100.00;102589.97;5093197;28;20058;-56
2021/12/13 09:27:30;;;;;;;26.55;17.65;;;;;;;7.94;100.00;102594.31;5091900;28;20468;-56
2021/12/13 09:30:17;;;;;;;24.80;17.00;;;;;;;7.98;100.00;102593.72;5092915;28;20040;-56
2021/12/13 09:32:48;;;;;;;24.25;17.20;;;;;;;7.93;100.00;102606.28;5092790;28;20059;-56
2021/12/13 09:35:27;;;;;;;28.02;17.55;;;;;;;7.95;100.00;102609.81;5092215;28;20112;-57
2021/12/13 09:37:55;;;;;;;25.10;17.33;;;;;;;7.94;100.00;102612.28;5092978;28;20080;-56
2021/12/13 09:40:26;;;;;;;;;;;;;;;8.02;100.00;102624.00;5092448;28;20120;-56
2021/12/13 09:42:56;;;;;;;26.92;18.15;;;;;;;7.96;100.00;102621.00;5092705;28;20394;-56
2021/12/13 09:45:33;;;;;;;23.45;16.77;;;;;;;7.95;100.00;102630.34;5092758;28;20051;-56
2021/12/13 09:48:15;;;;;;;27.73;18.20;;;;;;;7.99;100.00;102637.50;5092139;28;20471;-56
2021/12/13 09:50:42;;;;;;;26.17;17.02;;;;;;;7.98;100.00;102640.84;5092886;28;20027;-57
2021/12/13 09:53:09;;;;;;;26.35;17.30;;;;;;;8.00;100.00;102649.53;5092894;28;20483;-57
2021/12/13 09:55:43;;;;;;;20.83;15.95;;;;;;;8.01;100.00;102650.44;5091899;28;20043;-57
2021/12/13 09:58:17;;;;;;;22.83;16.55;;;;;;;8.02;100.00;102654.81;5092560;28;20368;-56
2021/12/13 10:00:59;;;;;;;22.88;16.33;;;;;;;8.05;100.00;102660.16;5092900;28;20039;-56
2021/12/13 10:03:30;;;;;;;22.33;15.57;;;;;;;8.06;100.00;102654.22;5091998;28;20035;-56
2021/12/13 10:06:04;;;;;;;23.17;15.50;;;;;;;8.07;100.00;102653.44;5092756;28;20107;-57
2021/12/13 10:08:49;;;;;;;21.75;15.07;;;;;;;8.07;100.00;102653.44;5092145;28;20520;-57
2021/12/13 10:11:30;;;;;;;22.35;15.23;;;;;;;8.05;100.00;102640.47;5092758;28;20032;-56
2021/12/13 10:13:55;;;;;;;21.98;15.45;;;;;;;8.05;100.00;102642.16;5092370;28;20028;-57
2021/12/13 10:16:28;;;;;;;26.42;16.42;;;;;;;8.07;100.00;102650.88;5091754;28;20391;-57
2021/12/13 10:18:54;;;;;;;26.42;17.00;;;;;;;8.07;100.00;102640.59;5092778;28;20080;-57
2021/12/13 10:21:27;;;;;;;29.40;22.33;;;;;;;8.07;100.00;102635.47;5092596;28;20094;-56
2021/12/13 10:24:03;;;;;;;23.90;15.43;;;;;;;8.08;100.00;102638.13;5091755;28;20020;-57
2021/12/13 10:26:35;;;;;;;20.85;15.88;;;;;;;8.08;100.00;102642.38;5092622;28;20044;-57
2021/12/13 10:29:04;;;;;;;23.02;16.13;;;;;;;8.07;100.00;102640.59;5092404;28;20028;-56
2021/12/13 10:31:45;;;;;;;19.88;14.98;;;;;;;8.10;100.00;102639.94;5091958;28;20108;-56
2021/12/13 10:34:15;;;;;;;21.73;16.52;;;;;;;8.08;100.00;102634.66;5093833;28;20040;-56
2021/12/13 10:36:44;;;;;;;25.00;16.90;;;;;;;8.08;100.00;102626.97;5095506;28;20032;-56
2021/12/13 10:39:16;;;;;;;23.63;15.90;;;;;;;8.10;100.00;102629.66;5096202;28;20058;-56
2021/12/13 10:41:45;;;;;;;19.50;13.38;;;;;;;8.10;100.00;102632.22;5095993;28;20055;-56
2021/12/13 10:44:15;;;;;;;20.35;13.77;;;;;;;8.10;100.00;102635.66;5095605;28;20055;-56
2021/12/13 10:46:44;;;;;;;15.57;12.02;;;;;;;8.10;100.00;102638.25;5096027;28;20365;-56
2021/12/13 10:49:16;;;;;;;17.90;13.65;;;;;;;8.10;100.00;102635.66;5095972;28;20468;-57
2021/12/13 10:51:45;;;;;;;24.17;16.35;;;;;;;8.10;100.00;102630.53;5095059;28;20360;-56
2021/12/13 10:54:18;;;;;;;17.40;13.23;;;;;;;8.11;99.84;102637.47;5095885;28;20104;-57
2021/12/13 10:56:56;;;;;;;23.58;15.93;;;;;;;8.14;100.00;102634.22;5095926;28;20036;-56
2021/12/13 10:59:24;;;;;;;23.23;16.15;;;;;;;8.14;99.92;102637.66;5095184;28;20136;-56
2021/12/13 11:01:54;;;;;;;22.92;17.38;;;;;;;8.13;99.74;102630.72;5095719;28;20039;-56
2021/12/13 11:04:28;;;;;;;24.95;16.35;;;;;;;8.13;99.66;102635.88;5095650;28;20023;-57
2021/12/13 11:06:54;;;;;;;22.75;15.20;;;;;;;8.13;99.15;102620.47;5095170;28;20039;-57
2021/12/13 11:09:23;;;;;;;18.55;12.85;;;;;;;8.13;99.25;102625.59;5095831;28;20020;-56
2021/12/13 11:11:54;;;;;;;19.35;12.40;;;;;;;8.14;99.14;102621.38;5094820;28;20540;-56
2021/12/13 11:14:21;;;;;;;19.33;13.48;;;;;;;8.16;99.34;102618.13;5095835;28;20032;-56
2021/12/13 11:16:51;;;;;;;15.07;10.80;;;;;;;8.17;98.68;102625.03;5095304;28;20047;-57
2021/12/13 11:19:20;;;;;;;16.98;11.52;;;;;;;8.17;98.93;102622.47;5094794;28;20066;-56
2021/12/13 11:21:51;;;;;;;16.33;11.45;;;;;;;8.17;99.06;102611.28;5095478;28;20044;-56
2021/12/13 11:24:21;;;;;;;16.67;11.20;;;;;;;8.18;98.42;102616.53;5095523;28;20024;-56
2021/12/13 11:26:58;;;;;;;16.65;11.43;;;;;;;8.18;98.80;102623.34;5094792;28;20032;-56
2021/12/13 11:29:24;;;;;;;21.33;15.13;;;;;;;8.20;98.50;102624.34;5095477;28;20110;-56
2021/12/13 11:31:52;;;;;;;18.77;12.23;;;;;;;8.20;98.58;102617.53;5095323;28;20039;-56
2021/12/13 11:34:51;;;;;;;15.38;11.68;;;;;;;8.23;98.72;102620.28;5094454;28;20066;-56
2021/12/13 11:37:35;;;;;;;18.30;10.85;;;;;;;8.20;97.91;102612.41;5095376;28;20086;-56
2021/12/13 11:40:19;;;;;;;15.32;10.68;;;;;;;8.21;98.03;102619.31;5094142;28;20370;-56
2021/12/13 11:43:07;;;;;;;16.05;10.65;;;;;;;8.22;98.12;102615.06;5094881;28;20115;-56
2021/12/13 11:45:50;;;;;;;;;;;;;;;8.31;99.29;102617.38;5094489;28;20024;-56
2021/12/13 11:48:27;;;;;;;13.43;9.55;;;;;;;8.24;97.69;102613.50;5094088;28;19927;-56
2021/12/13 11:51:23;;;;;;;14.93;9.90;;;;;;;8.24;97.53;102614.38;5094698;28;20456;-56